Murfreesboro, North Carolina
Current Conditions -  °F | °C
As of 2:55 AM on Monday 24 Nov 2014 (Local Time) from KASJ Reporting Station
Overcast Overcast  
Wind Chill: 66°   Ceiling: 1300
Heat Index: 66°   Visibility: 10mi
Dew Point: 64°   Wind: 16mph
Humidity: 93%   Direction: 170°S
Pressure: 29.78"   Gusts: 22mph
Location:  36.44°N, 77.1°W
Report Text: KASJ 240755Z AUTO 17014G19KT 10SM OVC013 19/18 A2978 RMK AO2 T01910180
Loading
Personal Weather Stations






























Interactive Weather Map New forecast layout! Learn more

10-Day Weather Forecast

Advertisements
Track Severe Weather on mobile